Time;durP1;ratioP1;P1;durP2;ratioP2;P2;SDS_P1;SDS_P2;PMS_P1;PMS_P2;Temp;Humidity;BMP_temperature;BMP_pressure;BME280_temperature;BME280_humidity;BME280_pressure;Samples;Min_cycle;Max_cycle;Signal;HPM_P1;HPM_P2
2022/03/15 00:00:38;;;;;;;22.55;9.80;;;;;;;;;;5111888;27;20081;-74
2022/03/15 00:03:03;;;;;;;22.20;9.23;;;;;;;;;;5111893;28;20066;-74
2022/03/15 00:05:28;;;;;;;15.55;8.18;;;;;;;;;;5113838;27;20130;-73
2022/03/15 00:07:54;;;;;;;23.02;9.30;;;;;;;;;;5130231;27;20035;-73
2022/03/15 00:10:19;;;;;;;16.65;9.25;;;;;;;;;;5111469;27;20436;-73
2022/03/15 00:12:46;;;;;;;21.42;9.45;;;;;;;;;;5110952;28;20122;-73
2022/03/15 00:15:11;;;;;;;16.67;9.82;;;;;;;;;;5111285;27;20042;-73
2022/03/15 00:17:42;;;;;;;18.25;9.70;;;;;;;;;;5113287;27;20023;-74
2022/03/15 00:20:09;;;;;;;18.17;9.52;;;;;;;;;;5121387;27;20043;-73
2022/03/15 00:22:36;;;;;;;21.02;9.55;;;;;;;;;;5110593;28;20043;-74
2022/03/15 00:25:04;;;;;;;18.80;9.35;;;;;;;;;;5107595;28;20028;-73
2022/03/15 00:27:30;;;;;;;18.88;9.13;;;;;;;;;;5110802;28;20503;-73
2022/03/15 00:29:55;;;;;;;18.88;9.30;;;;;;;;;;5111720;28;20028;-74
2022/03/15 00:32:21;;;;;;;18.52;8.88;;;;;;;;;;5111853;28;20031;-73
2022/03/15 00:34:47;;;;;;;16.35;9.02;;;;;;;;;;5102132;27;20046;-74
2022/03/15 00:37:13;;;;;;;23.55;8.82;;;;;;;;;;5103095;27;20035;-74
2022/03/15 00:39:38;;;;;;;18.00;9.00;;;;;;;;;;5102009;28;20092;-73
2022/03/15 00:42:04;;;;;;;17.65;8.38;;;;;;;;;;5110849;28;20129;-73
2022/03/15 00:44:29;;;;;;;17.77;8.43;;;;;;;;;;5114426;27;20038;-73
2022/03/15 00:46:54;;;;;;;20.23;8.82;;;;;;;;;;5110377;27;20039;-74
2022/03/15 00:49:20;;;;;;;17.80;8.55;;;;;;;;;;5111115;27;20031;-74
2022/03/15 00:51:45;;;;;;;17.00;8.02;;;;;;;;;;5109520;28;20059;-74
2022/03/15 00:54:11;;;;;;;16.35;8.60;;;;;;;;;;5111006;28;20031;-74
2022/03/15 00:56:36;;;;;;;18.58;9.13;;;;;;;;;;5110914;27;20039;-73
2022/03/15 00:59:02;;;;;;;18.33;8.15;;;;;;;;;;5108821;28;20055;-74
2022/03/15 01:01:27;;;;;;;17.65;8.18;;;;;;;;;;5110321;28;20044;-73
2022/03/15 01:03:52;;;;;;;14.15;7.75;;;;;;;;;;5109977;28;20024;-74
2022/03/15 01:06:18;;;;;;;12.25;6.55;;;;;;;;;;5108914;28;20085;-73
2022/03/15 01:08:43;;;;;;;17.73;7.75;;;;;;;;;;5110327;28;20012;-74
2022/03/15 01:11:08;;;;;;;14.85;7.60;;;;;;;;;;5109002;28;20042;-74
2022/03/15 01:13:34;;;;;;;16.13;7.65;;;;;;;;;;5090933;28;20055;-74
2022/03/15 01:15:59;;;;;;;13.82;6.90;;;;;;;;;;5119419;27;20488;-73
2022/03/15 01:18:25;;;;;;;14.40;7.40;;;;;;;;;;5104917;28;20054;-73
2022/03/15 01:20:51;;;;;;;16.33;7.53;;;;;;;;;;5109230;28;20031;-73
2022/03/15 01:23:16;;;;;;;15.10;7.53;;;;;;;;;;5111036;27;20475;-74
2022/03/15 01:25:42;;;;;;;15.25;7.60;;;;;;;;;;5098513;28;20136;-73
2022/03/15 01:28:08;;;;;;;16.42;7.07;;;;;;;;;;5093655;28;20418;-74
2022/03/15 01:30:34;;;;;;;14.65;6.50;;;;;;;;;;5110943;28;20027;-74
2022/03/15 01:32:59;;;;;;;13.40;7.00;;;;;;;;;;5110964;28;20544;-73
2022/03/15 01:35:25;;;;;;;11.30;6.78;;;;;;;;;;5106293;28;20036;-73
2022/03/15 01:37:50;;;;;;;14.18;6.25;;;;;;;;;;5109634;27;20476;-74
2022/03/15 01:40:15;;;;;;;13.13;6.38;;;;;;;;;;5110828;27;20032;-73
2022/03/15 01:42:41;;;;;;;11.07;5.72;;;;;;;;;;5109453;27;20489;-74
2022/03/15 01:45:08;;;;;;;13.88;6.07;;;;;;;;;;5116515;27;20505;-74
2022/03/15 01:47:33;;;;;;;8.57;5.50;;;;;;;;;;5114075;27;20392;-74
2022/03/15 01:49:59;;;;;;;12.05;6.13;;;;;;;;;;5106010;28;20031;-73
2022/03/15 01:52:25;;;;;;;11.73;6.32;;;;;;;;;;5108785;27;20043;-73
2022/03/15 01:54:50;;;;;;;14.02;6.25;;;;;;;;;;5102406;28;20036;-73
2022/03/15 01:57:16;;;;;;;10.95;5.88;;;;;;;;;;5107819;27;20031;-73
2022/03/15 01:59:42;;;;;;;13.43;6.15;;;;;;;;;;5110628;28;20058;-73
2022/03/15 02:02:08;;;;;;;14.38;5.97;;;;;;;;;;5109524;28;20583;-73
2022/03/15 02:04:36;;;;;;;12.13;6.07;;;;;;;;;;5105516;28;20135;-73
2022/03/15 02:07:10;;;;;;;11.48;5.63;;;;;;;;;;5120665;27;20039;-73
2022/03/15 02:09:36;;;;;;;9.68;5.63;;;;;;;;;;5108829;28;20039;-73
2022/03/15 02:12:02;;;;;;;10.15;5.07;;;;;;;;;;5108299;28;20035;-73
2022/03/15 02:14:27;;;;;;;13.13;5.43;;;;;;;;;;5094398;28;20047;-73
2022/03/15 02:16:53;;;;;;;10.82;4.75;;;;;;;;;;5107951;28;20044;-73
2022/03/15 02:19:19;;;;;;;10.40;4.85;;;;;;;;;;5100999;27;20040;-74
2022/03/15 02:21:45;;;;;;;10.23;4.85;;;;;;;;;;5103910;28;20729;-73
2022/03/15 02:24:10;;;;;;;15.40;5.60;;;;;;;;;;5110683;28;20031;-73
2022/03/15 02:26:36;;;;;;;11.38;5.03;;;;;;;;;;5109130;27;20130;-73
2022/03/15 02:29:01;;;;;;;10.90;5.43;;;;;;;;;;5108923;28;20047;-74
2022/03/15 02:31:27;;;;;;;10.95;4.55;;;;;;;;;;5109755;27;20118;-74
2022/03/15 02:33:52;;;;;;;10.82;5.00;;;;;;;;;;5108854;27;20055;-74
2022/03/15 02:36:18;;;;;;;11.10;4.50;;;;;;;;;;5115413;27;20038;-73
2022/03/15 02:38:46;;;;;;;8.43;4.72;;;;;;;;;;5107524;28;20031;-73
2022/03/15 02:41:13;;;;;;;8.48;4.65;;;;;;;;;;5108374;28;20043;-73
2022/03/15 02:43:40;;;;;;;10.05;4.65;;;;;;;;;;5108886;27;20046;-73
2022/03/15 02:46:05;;;;;;;13.55;5.20;;;;;;;;;;5109647;27;20111;-73
2022/03/15 02:48:31;;;;;;;11.45;4.95;;;;;;;;;;5107614;28;20135;-73
2022/03/15 02:51:05;;;;;;;12.88;5.20;;;;;;;;;;5108496;28;20026;-73
2022/03/15 02:53:30;;;;;;;13.13;5.07;;;;;;;;;;5117858;27;20035;-73
2022/03/15 02:55:55;;;;;;;16.60;5.15;;;;;;;;;;5112177;27;20046;-73
2022/03/15 02:58:21;;;;;;;13.07;5.75;;;;;;;;;;5107933;27;20134;-74
2022/03/15 03:00:47;;;;;;;12.05;5.53;;;;;;;;;;5109283;28;20098;-73
2022/03/15 03:03:13;;;;;;;11.25;5.20;;;;;;;;;;5108768;28;20059;-73
2022/03/15 03:05:39;;;;;;;9.93;4.63;;;;;;;;;;5108638;28;20047;-73
2022/03/15 03:08:05;;;;;;;11.82;4.72;;;;;;;;;;5107989;28;20039;-73
2022/03/15 03:10:31;;;;;;;13.75;5.05;;;;;;;;;;5107644;28;20047;-73
2022/03/15 03:12:57;;;;;;;12.45;4.93;;;;;;;;;;5106766;28;20035;-73
2022/03/15 03:15:22;;;;;;;12.77;4.88;;;;;;;;;;5106352;28;20023;-73
2022/03/15 03:17:48;;;;;;;11.13;5.15;;;;;;;;;;5111223;27;20393;-73
2022/03/15 03:20:19;;;;;;;12.57;5.40;;;;;;;;;;5111930;27;20048;-73
2022/03/15 03:22:48;;;;;;;14.65;4.97;;;;;;;;;;5112781;27;20040;-73
2022/03/15 03:25:13;;;;;;;13.10;5.30;;;;;;;;;;5110861;28;20408;-73
2022/03/15 03:27:39;;;;;;;13.25;5.18;;;;;;;;;;5113066;27;20090;-73
2022/03/15 03:30:05;;;;;;;11.20;4.55;;;;;;;;;;5111981;28;20598;-73
2022/03/15 03:32:30;;;;;;;10.18;4.63;;;;;;;;;;5111722;28;20051;-73
2022/03/15 03:34:57;;;;;;;10.05;4.57;;;;;;;;;;5112161;27;20070;-73
2022/03/15 03:37:24;;;;;;;11.50;4.68;;;;;;;;;;5112814;28;20039;-73
2022/03/15 03:39:51;;;;;;;11.35;5.10;;;;;;;;;;5112451;27;20050;-73
2022/03/15 03:42:17;;;;;;;13.43;4.72;;;;;;;;;;5112570;27;20111;-73
2022/03/15 03:44:43;;;;;;;8.68;4.55;;;;;;;;;;5110694;28;20028;-73
2022/03/15 03:47:09;;;;;;;8.25;4.18;;;;;;;;;;5112981;27;20108;-73
2022/03/15 03:49:35;;;;;;;10.65;3.92;;;;;;;;;;5100062;27;20413;-73
2022/03/15 03:52:01;;;;;;;10.60;4.10;;;;;;;;;;5092155;28;20508;-73
2022/03/15 03:54:27;;;;;;;10.98;3.70;;;;;;;;;;5091511;27;20543;-73
2022/03/15 03:56:52;;;;;;;8.73;3.80;;;;;;;;;;5092791;28;20028;-73
2022/03/15 03:59:18;;;;;;;11.40;4.72;;;;;;;;;;5088199;28;20052;-73
2022/03/15 04:01:44;;;;;;;13.07;4.50;;;;;;;;;;5104269;28;20204;-73
2022/03/15 04:04:10;;;;;;;10.93;4.10;;;;;;;;;;5111693;27;20576;-73
2022/03/15 04:06:38;;;;;;;15.52;4.03;;;;;;;;;;5111661;28;20035;-73
2022/03/15 04:09:04;;;;;;;11.15;4.22;;;;;;;;;;5112075;27;20027;-73
2022/03/15 04:11:31;;;;;;;7.75;3.63;;;;;;;;;;5111732;27;20044;-73
2022/03/15 04:14:00;;;;;;;9.90;3.45;;;;;;;;;;5095019;28;20074;-73
2022/03/15 04:16:26;;;;;;;11.10;3.75;;;;;;;;;;5112388;27;20050;-73
2022/03/15 04:18:52;;;;;;;6.60;3.00;;;;;;;;;;5112262;27;20050;-73
2022/03/15 04:21:18;;;;;;;10.70;3.22;;;;;;;;;;5111119;27;20584;-73
2022/03/15 04:23:45;;;;;;;8.02;3.13;;;;;;;;;;5111191;28;20476;-73
2022/03/15 04:26:10;;;;;;;7.40;3.10;;;;;;;;;;5109395;28;20035;-73
2022/03/15 04:28:35;;;;;;;9.95;3.10;;;;;;;;;;5103341;27;20125;-73
2022/03/15 04:31:01;;;;;;;10.48;3.30;;;;;;;;;;5109908;28;20028;-73
2022/03/15 04:33:26;;;;;;;8.23;3.03;;;;;;;;;;5110614;27;20027;-73
2022/03/15 04:35:51;;;;;;;9.80;3.67;;;;;;;;;;5110432;28;20496;-73
2022/03/15 04:38:17;;;;;;;6.25;3.72;;;;;;;;;;5102106;28;20035;-73
2022/03/15 04:40:42;;;;;;;6.57;2.78;;;;;;;;;;5109269;28;20032;-73
2022/03/15 04:43:08;;;;;;;8.18;3.20;;;;;;;;;;5110394;28;20042;-73
2022/03/15 04:45:33;;;;;;;7.68;3.00;;;;;;;;;;5113019;27;20456;-72
2022/03/15 04:47:59;;;;;;;14.40;3.90;;;;;;;;;;5110107;28;20041;-73
2022/03/15 04:50:24;;;;;;;9.52;4.13;;;;;;;;;;5110840;27;20512;-73
2022/03/15 04:52:50;;;;;;;10.75;4.00;;;;;;;;;;5100446;28;20419;-73
2022/03/15 04:55:15;;;;;;;13.43;4.80;;;;;;;;;;5087101;28;20047;-73
2022/03/15 04:57:40;;;;;;;13.13;4.25;;;;;;;;;;5094929;28;20599;-73
2022/03/15 05:00:09;;;;;;;13.93;4.90;;;;;;;;;;5109339;27;20104;-73
2022/03/15 05:02:36;;;;;;;14.93;4.97;;;;;;;;;;5111091;27;20125;-73
2022/03/15 05:05:03;;;;;;;17.67;5.13;;;;;;;;;;5109316;28;20085;-73
2022/03/15 05:07:28;;;;;;;16.48;6.07;;;;;;;;;;5109060;28;20055;-73
2022/03/15 05:12:37;;;;;;;;;;;;;;;;;;5091524;28;20227;-73
2022/03/15 05:15:03;;;;;;;23.67;7.85;;;;;;;;;;5103304;27;20300;-73
2022/03/15 05:17:30;;;;;;;19.80;7.57;;;;;;;;;;5109068;28;20126;-73
2022/03/15 05:19:57;;;;;;;26.42;7.63;;;;;;;;;;5103169;28;20038;-73
2022/03/15 05:22:23;;;;;;;25.23;8.13;;;;;;;;;;5109119;27;20416;-73
2022/03/15 05:24:48;;;;;;;19.80;7.53;;;;;;;;;;5118338;27;20035;-73
2022/03/15 05:27:14;;;;;;;24.33;7.38;;;;;;;;;;5108124;27;20038;-73
2022/03/15 05:29:39;;;;;;;21.95;7.45;;;;;;;;;;5107418;28;20613;-74
2022/03/15 05:32:05;;;;;;;18.75;7.30;;;;;;;;;;5106219;28;20024;-74
2022/03/15 05:34:31;;;;;;;18.30;6.78;;;;;;;;;;5103603;27;20040;-73
2022/03/15 05:36:56;;;;;;;18.67;7.10;;;;;;;;;;5107230;27;20039;-74
2022/03/15 05:39:21;;;;;;;20.60;7.45;;;;;;;;;;5107467;28;20119;-74
2022/03/15 05:41:47;;;;;;;19.05;6.65;;;;;;;;;;5107706;28;20042;-74
2022/03/15 05:44:13;;;;;;;21.13;6.68;;;;;;;;;;5101800;27;20047;-73
2022/03/15 05:46:39;;;;;;;17.25;5.82;;;;;;;;;;5098518;27;20483;-74
2022/03/15 05:49:04;;;;;;;11.13;5.07;;;;;;;;;;5109115;27;20165;-73
2022/03/15 05:51:29;;;;;;;10.32;3.83;;;;;;;;;;5108390;28;20110;-74
2022/03/15 05:53:55;;;;;;;5.75;3.22;;;;;;;;;;5108697;28;20650;-74
2022/03/15 05:56:20;;;;;;;11.52;4.18;;;;;;;;;;5108110;27;20051;-74
2022/03/15 05:58:46;;;;;;;10.32;4.30;;;;;;;;;;5108402;27;20054;-74
2022/03/15 06:01:12;;;;;;;9.48;3.53;;;;;;;;;;5108827;27;20032;-74
2022/03/15 06:03:37;;;;;;;9.95;4.10;;;;;;;;;;5109422;28;20389;-74
2022/03/15 06:06:03;;;;;;;13.30;4.60;;;;;;;;;;5110422;27;20050;-74
2022/03/15 06:08:28;;;;;;;8.90;4.07;;;;;;;;;;5110575;27;20489;-74
2022/03/15 06:10:54;;;;;;;9.02;3.72;;;;;;;;;;5109910;27;20104;-75
2022/03/15 06:13:19;;;;;;;8.57;4.03;;;;;;;;;;5100580;27;20040;-74
2022/03/15 06:15:44;;;;;;;9.27;4.60;;;;;;;;;;5105821;28;20432;-74
2022/03/15 06:18:10;;;;;;;12.18;4.88;;;;;;;;;;5100818;28;20084;-74
2022/03/15 06:20:36;;;;;;;13.82;4.65;;;;;;;;;;5109757;27;20039;-74
2022/03/15 06:23:02;;;;;;;10.70;4.70;;;;;;;;;;5105573;28;20040;-74
2022/03/15 06:25:30;;;;;;;15.65;4.60;;;;;;;;;;5106824;28;20770;-74
2022/03/15 06:27:55;;;;;;;16.60;4.82;;;;;;;;;;5087775;28;20032;-74
2022/03/15 06:30:21;;;;;;;10.95;4.75;;;;;;;;;;5087705;28;20050;-74
2022/03/15 06:32:46;;;;;;;9.38;4.53;;;;;;;;;;5087084;28;20024;-74
2022/03/15 06:35:13;;;;;;;15.07;5.97;;;;;;;;;;5105695;28;20034;-74
2022/03/15 06:37:45;;;;;;;12.68;5.57;;;;;;;;;;5108639;27;20031;-74
2022/03/15 06:40:13;;;;;;;17.15;6.30;;;;;;;;;;5106962;27;20039;-74
2022/03/15 06:42:38;;;;;;;14.63;5.97;;;;;;;;;;5093234;27;20044;-73
2022/03/15 06:45:08;;;;;;;13.85;5.55;;;;;;;;;;5116881;27;20030;-74
2022/03/15 06:47:38;;;;;;;9.07;4.32;;;;;;;;;;5108347;27;20080;-74
2022/03/15 06:50:08;;;;;;;6.75;3.88;;;;;;;;;;5108575;27;20035;-74
2022/03/15 06:52:33;;;;;;;9.38;4.30;;;;;;;;;;5107167;28;20032;-74
2022/03/15 06:54:59;;;;;;;11.85;4.88;;;;;;;;;;5105112;27;20038;-74
2022/03/15 06:57:24;;;;;;;12.63;5.13;;;;;;;;;;5100419;28;20035;-73
2022/03/15 06:59:50;;;;;;;16.13;7.75;;;;;;;;;;5108392;28;20130;-74
2022/03/15 07:02:15;;;;;;;13.40;6.95;;;;;;;;;;5088944;28;20039;-74
2022/03/15 07:04:41;;;;;;;15.93;6.25;;;;;;;;;;5107108;28;20051;-74
2022/03/15 07:07:07;;;;;;;16.67;6.07;;;;;;;;;;5106772;28;20539;-74
2022/03/15 07:09:32;;;;;;;18.05;6.32;;;;;;;;;;5114660;27;20136;-74
2022/03/15 07:11:58;;;;;;;10.52;5.30;;;;;;;;;;5098322;27;20478;-75
2022/03/15 07:14:23;;;;;;;12.60;4.72;;;;;;;;;;5103826;28;20131;-74
2022/03/15 07:16:48;;;;;;;11.73;5.15;;;;;;;;;;5106619;28;20051;-74
2022/03/15 07:19:14;;;;;;;12.85;5.82;;;;;;;;;;5107913;27;20035;-74
2022/03/15 07:21:39;;;;;;;11.55;5.05;;;;;;;;;;5108207;28;20035;-75
2022/03/15 07:24:05;;;;;;;12.18;5.18;;;;;;;;;;5107035;28;20024;-74
2022/03/15 07:26:31;;;;;;;18.15;5.10;;;;;;;;;;5108282;27;20040;-74
2022/03/15 07:28:57;;;;;;;13.07;5.47;;;;;;;;;;5118306;28;20659;-74
2022/03/15 07:31:23;;;;;;;11.77;5.60;;;;;;;;;;5101294;27;20039;-75
2022/03/15 07:33:48;;;;;;;14.93;5.10;;;;;;;;;;5106775;27;20036;-75
2022/03/15 07:36:14;;;;;;;9.77;4.97;;;;;;;;;;5106909;27;20031;-74
2022/03/15 07:38:39;;;;;;;11.43;5.35;;;;;;;;;;5107809;28;20058;-74
2022/03/15 07:41:05;;;;;;;15.07;5.38;;;;;;;;;;5107918;27;20051;-74
2022/03/15 07:43:30;;;;;;;13.82;4.85;;;;;;;;;;5107853;28;20497;-74
2022/03/15 07:45:56;;;;;;;10.27;4.47;;;;;;;;;;5118072;27;20117;-74
2022/03/15 07:48:21;;;;;;;12.02;5.18;;;;;;;;;;5105066;27;20024;-75
2022/03/15 07:50:47;;;;;;;15.18;5.28;;;;;;;;;;5088134;28;20027;-75
2022/03/15 07:53:12;;;;;;;10.90;5.30;;;;;;;;;;5087603;28;20113;-74
2022/03/15 07:55:38;;;;;;;8.90;4.72;;;;;;;;;;5083439;28;20124;-74
2022/03/15 07:58:03;;;;;;;16.95;5.15;;;;;;;;;;5081873;27;20056;-74
2022/03/15 08:00:29;;;;;;;10.63;5.00;;;;;;;;;;5065937;28;20066;-74
2022/03/15 08:02:54;;;;;;;10.48;5.07;;;;;;;;;;5074982;28;20025;-75
2022/03/15 08:05:20;;;;;;;9.00;4.70;;;;;;;;;;5075110;28;20047;-74
2022/03/15 08:07:46;;;;;;;8.88;4.20;;;;;;;;;;5091251;27;20032;-75
2022/03/15 08:10:12;;;;;;;9.57;4.93;;;;;;;;;;5095711;27;20413;-74
2022/03/15 08:12:39;;;;;;;8.18;4.80;;;;;;;;;;5089488;28;20505;-74
2022/03/15 08:15:06;;;;;;;9.88;3.95;;;;;;;;;;5101033;28;20030;-75
2022/03/15 08:17:35;;;;;;;9.27;4.78;;;;;;;;;;5109871;28;20472;-74
2022/03/15 08:20:01;;;;;;;12.73;6.20;;;;;;;;;;5109317;28;20041;-74
2022/03/15 08:22:28;;;;;;;8.00;4.18;;;;;;;;;;5102208;27;20036;-75
2022/03/15 08:24:54;;;;;;;11.63;5.35;;;;;;;;;;5097139;27;20032;-74
2022/03/15 08:27:20;;;;;;;7.95;4.60;;;;;;;;;;5106781;28;20038;-74
2022/03/15 08:29:45;;;;;;;8.95;4.88;;;;;;;;;;5110365;28;20020;-74
2022/03/15 08:32:11;;;;;;;11.70;4.93;;;;;;;;;;5112241;27;20027;-75
2022/03/15 08:34:37;;;;;;;13.32;6.00;;;;;;;;;;5109468;27;20127;-74
2022/03/15 08:37:04;;;;;;;11.45;5.68;;;;;;;;;;5111712;27;20027;-74
2022/03/15 08:39:29;;;;;;;9.15;5.00;;;;;;;;;;5111566;27;20019;-74
2022/03/15 08:41:54;;;;;;;8.50;4.38;;;;;;;;;;5111032;28;20032;-74
2022/03/15 08:44:22;;;;;;;6.07;3.53;;;;;;;;;;5111707;28;20583;-74
2022/03/15 08:46:48;;;;;;;6.97;3.40;;;;;;;;;;5123044;27;20035;-74
2022/03/15 08:49:15;;;;;;;5.97;3.13;;;;;;;;;;5109822;27;20030;-74
2022/03/15 08:51:41;;;;;;;6.00;3.90;;;;;;;;;;5106166;28;20059;-74
2022/03/15 08:54:07;;;;;;;6.35;3.90;;;;;;;;;;5090246;28;20140;-75
2022/03/15 08:56:32;;;;;;;8.55;4.43;;;;;;;;;;5089975;28;20505;-75
2022/03/15 08:58:58;;;;;;;8.63;3.92;;;;;;;;;;5075104;28;20081;-74
2022/03/15 09:01:23;;;;;;;10.93;5.20;;;;;;;;;;5081395;27;20046;-74
2022/03/15 09:03:48;;;;;;;8.77;4.30;;;;;;;;;;5090056;28;20035;-74
2022/03/15 09:06:14;;;;;;;13.05;4.10;;;;;;;;;;5089293;27;20069;-74
2022/03/15 09:08:39;;;;;;;9.82;4.32;;;;;;;;;;5112546;27;20691;-74
2022/03/15 09:11:05;;;;;;;8.93;3.33;;;;;;;;;;5108813;28;20088;-74
2022/03/15 09:13:30;;;;;;;5.65;2.97;;;;;;;;;;5110781;27;20446;-74
2022/03/15 09:15:56;;;;;;;4.78;2.58;;;;;;;;;;5109186;27;20786;-74
2022/03/15 09:18:26;;;;;;;2.90;1.65;;;;;;;;;;5100000;28;20020;-74
2022/03/15 09:20:53;;;;;;;2.90;1.67;;;;;;;;;;5099737;28;20019;-74
2022/03/15 09:23:20;;;;;;;3.08;1.50;;;;;;;;;;5101358;28;20043;-74
2022/03/15 09:25:47;;;;;;;3.45;1.45;;;;;;;;;;5101233;27;20039;-74
2022/03/15 09:28:13;;;;;;;2.67;1.40;;;;;;;;;;5097069;28;20481;-74
2022/03/15 09:30:38;;;;;;;2.53;1.50;;;;;;;;;;5097854;27;20030;-74
2022/03/15 09:33:05;;;;;;;2.35;1.50;;;;;;;;;;5100516;27;20035;-74
2022/03/15 09:35:30;;;;;;;2.05;1.35;;;;;;;;;;5098989;27;20105;-74
2022/03/15 09:37:56;;;;;;;2.20;1.23;;;;;;;;;;5102943;27;20556;-74
2022/03/15 09:40:25;;;;;;;5.72;2.55;;;;;;;;;;5095389;27;20042;-74
2022/03/15 09:42:54;;;;;;;2.65;1.67;;;;;;;;;;5112498;27;20047;-74
2022/03/15 09:45:22;;;;;;;3.13;1.60;;;;;;;;;;5109309;27;20036;-73
2022/03/15 09:47:53;;;;;;;2.72;1.70;;;;;;;;;;5100130;27;20027;-74
2022/03/15 09:50:20;;;;;;;2.90;2.00;;;;;;;;;;5104669;28;20032;-74
2022/03/15 09:52:47;;;;;;;3.63;2.30;;;;;;;;;;5109767;27;20073;-75
2022/03/15 09:55:12;;;;;;;4.35;2.58;;;;;;;;;;5108718;28;20038;-74
2022/03/15 09:57:39;;;;;;;3.25;1.85;;;;;;;;;;5108415;27;20044;-74
2022/03/15 10:00:05;;;;;;;6.63;2.30;;;;;;;;;;5110393;28;20104;-74
2022/03/15 10:02:31;;;;;;;2.70;1.80;;;;;;;;;;5108009;27;20051;-74
2022/03/15 10:04:57;;;;;;;2.92;1.85;;;;;;;;;;5110091;28;20043;-74
2022/03/15 10:07:22;;;;;;;2.35;1.45;;;;;;;;;;5098612;27;20040;-74
2022/03/15 10:09:47;;;;;;;1.65;0.85;;;;;;;;;;5089107;28;20039;-74
2022/03/15 10:12:13;;;;;;;2.13;1.48;;;;;;;;;;5079905;28;20020;-73
2022/03/15 10:14:44;;;;;;;1.98;1.10;;;;;;;;;;5088634;28;20023;-73
2022/03/15 10:17:12;;;;;;;1.80;1.05;;;;;;;;;;5106023;28;20063;-72
2022/03/15 10:19:38;;;;;;;1.88;1.00;;;;;;;;;;5110034;27;20071;-73
2022/03/15 10:22:09;;;;;;;2.53;1.40;;;;;;;;;;5099673;28;20536;-74
2022/03/15 10:24:38;;;;;;;1.48;1.10;;;;;;;;;;5109922;28;20076;-74
2022/03/15 10:27:06;;;;;;;1.08;0.80;;;;;;;;;;5105068;28;20020;-78
2022/03/15 10:29:33;;;;;;;1.77;1.05;;;;;;;;;;5099642;28;20056;-74
2022/03/15 10:31:59;;;;;;;2.45;1.20;;;;;;;;;;5104037;28;20028;-72
2022/03/15 10:34:26;;;;;;;1.90;1.17;;;;;;;;;;5105217;28;20416;-73
2022/03/15 10:36:54;;;;;;;3.70;2.00;;;;;;;;;;5105440;28;20024;-73
2022/03/15 10:39:20;;;;;;;2.40;1.33;;;;;;;;;;5108649;27;20032;-72
2022/03/15 10:42:01;;;;;;;2.33;1.40;;;;;;;;;;5093211;28;20064;-73
2022/03/15 10:44:34;;;;;;;3.20;1.50;;;;;;;;;;5108416;27;20043;-73
2022/03/15 10:47:15;;;;;;;3.30;1.85;;;;;;;;;;5107354;28;20051;-73
2022/03/15 10:50:03;;;;;;;2.85;1.30;;;;;;;;;;5108642;28;20453;-73
2022/03/15 10:52:34;;;;;;;2.92;1.15;;;;;;;;;;5089841;28;20039;-73
2022/03/15 10:55:28;;;;;;;2.22;1.10;;;;;;;;;;5107800;28;20031;-72
2022/03/15 10:58:05;;;;;;;2.03;1.33;;;;;;;;;;5103818;28;20119;-72
2022/03/15 11:00:39;;;;;;;2.42;1.20;;;;;;;;;;5099323;28;20048;-73
2022/03/15 11:03:23;;;;;;;4.00;1.63;;;;;;;;;;5086402;28;20051;-73
2022/03/15 11:05:50;;;;;;;2.97;1.45;;;;;;;;;;5088283;28;20142;-73
2022/03/15 11:08:17;;;;;;;3.42;1.83;;;;;;;;;;5076542;28;20031;-73
2022/03/15 11:10:48;;;;;;;4.13;1.67;;;;;;;;;;5088048;28;20452;-73
2022/03/15 11:13:15;;;;;;;4.32;2.17;;;;;;;;;;5086142;28;20032;-73
2022/03/15 11:15:44;;;;;;;3.60;2.20;;;;;;;;;;5087640;28;20028;-73
2022/03/15 11:18:12;;;;;;;3.42;1.45;;;;;;;;;;5088480;28;20108;-73
2022/03/15 11:20:42;;;;;;;5.00;1.80;;;;;;;;;;5108022;28;20059;-73
2022/03/15 11:23:10;;;;;;;4.15;1.60;;;;;;;;;;5107586;27;20040;-73
2022/03/15 11:25:37;;;;;;;3.95;1.55;;;;;;;;;;5108140;28;20054;-73
2022/03/15 11:28:09;;;;;;;2.60;1.70;;;;;;;;;;5099227;28;20085;-72
2022/03/15 11:30:35;;;;;;;2.53;1.73;;;;;;;;;;5077625;28;20115;-73
2022/03/15 11:33:03;;;;;;;4.90;1.90;;;;;;;;;;5108567;28;20023;-73
2022/03/15 11:35:31;;;;;;;1.80;1.20;;;;;;;;;;5107419;27;20133;-73
2022/03/15 11:37:58;;;;;;;2.03;1.30;;;;;;;;;;5101000;28;20036;-73
2022/03/15 11:40:24;;;;;;;2.95;1.70;;;;;;;;;;5109835;27;20039;-73
2022/03/15 11:42:57;;;;;;;1.50;1.10;;;;;;;;;;5097413;28;20056;-73
2022/03/15 11:45:40;;;;;;;2.28;1.20;;;;;;;;;;5112119;28;20035;-73
2022/03/15 11:48:11;;;;;;;3.03;1.10;;;;;;;;;;5112293;28;20015;-73
2022/03/15 11:51:08;;;;;;;2.15;1.05;;;;;;;;;;5111365;28;20035;-73
2022/03/15 11:54:06;;;;;;;4.40;1.33;;;;;;;;;;5091578;28;20024;-73
2022/03/15 11:56:45;;;;;;;3.88;1.40;;;;;;;;;;5082896;28;20119;-73
2022/03/15 11:59:10;;;;;;;3.15;1.48;;;;;;;;;;5089349;28;20051;-73
2022/03/15 12:01:47;;;;;;;2.17;1.50;;;;;;;;;;5091472;28;20028;-73
2022/03/15 12:04:13;;;;;;;3.63;1.30;;;;;;;;;;5089485;28;20098;-72
2022/03/15 12:06:50;;;;;;;1.45;1.17;;;;;;;;;;5089241;28;20044;-73
2022/03/15 12:09:21;;;;;;;3.08;1.30;;;;;;;;;;5090878;27;20039;-73
2022/03/15 12:11:46;;;;;;;2.50;1.20;;;;;;;;;;5112316;28;20022;-73
2022/03/15 12:14:17;;;;;;;2.10;1.17;;;;;;;;;;5109497;27;20028;-73
2022/03/15 12:16:47;;;;;;;3.90;1.40;;;;;;;;;;5123668;27;20520;-73
2022/03/15 12:19:39;;;;;;;3.00;1.30;;;;;;;;;;5124347;27;20062;-73
2022/03/15 12:22:07;;;;;;;2.28;1.60;;;;;;;;;;5111335;27;20035;-73
2022/03/15 12:24:45;;;;;;;2.40;1.30;;;;;;;;;;5109457;27;20408;-73
2022/03/15 12:27:22;;;;;;;4.45;2.03;;;;;;;;;;5108395;27;20031;-73
2022/03/15 12:29:52;;;;;;;1.75;1.40;;;;;;;;;;5085435;28;20040;-73
2022/03/15 12:32:20;;;;;;;2.88;1.60;;;;;;;;;;5088482;28;20701;-72
2022/03/15 12:34:52;;;;;;;6.38;1.70;;;;;;;;;;5076879;28;20089;-73
2022/03/15 12:37:37;;;;;;;1.95;1.30;;;;;;;;;;5081466;28;20052;-73
2022/03/15 12:40:06;;;;;;;3.75;1.35;;;;;;;;;;5079296;28;20096;-72
2022/03/15 12:42:33;;;;;;;2.50;1.30;;;;;;;;;;5086398;27;20050;-72
2022/03/15 12:45:07;;;;;;;4.63;1.50;;;;;;;;;;5087375;28;20040;-73
2022/03/15 12:47:35;;;;;;;1.75;1.40;;;;;;;;;;5084765;28;20596;-73
2022/03/15 12:50:13;;;;;;;6.13;1.40;;;;;;;;;;5099701;28;20043;-72
2022/03/15 12:52:50;;;;;;;2.42;1.40;;;;;;;;;;5101365;27;20040;-73
2022/03/15 12:55:18;;;;;;;2.05;1.20;;;;;;;;;;5106812;28;20035;-73
2022/03/15 12:57:44;;;;;;;5.93;1.40;;;;;;;;;;5104472;28;20028;-72
2022/03/15 13:00:11;;;;;;;1.90;1.27;;;;;;;;;;5097022;28;20520;-72
2022/03/15 13:02:38;;;;;;;2.13;1.40;;;;;;;;;;5101625;27;20033;-73
2022/03/15 13:05:15;;;;;;;2.17;1.15;;;;;;;;;;5106288;27;20032;-73
2022/03/15 13:07:40;;;;;;;2.00;1.40;;;;;;;;;;5085635;28;20032;-72
2022/03/15 13:10:08;;;;;;;2.20;1.38;;;;;;;;;;5111723;27;20032;-73
2022/03/15 13:12:33;;;;;;;2.63;1.60;;;;;;;;;;5100968;28;20040;-72
2022/03/15 13:14:59;;;;;;;1.90;1.50;;;;;;;;;;5102009;28;20032;-72
2022/03/15 13:17:26;;;;;;;7.53;1.92;;;;;;;;;;5106501;27;20500;-73
2022/03/15 13:19:52;;;;;;;3.35;1.50;;;;;;;;;;5105998;27;20420;-73
2022/03/15 13:22:29;;;;;;;3.88;1.60;;;;;;;;;;5100381;28;20044;-71
2022/03/15 13:25:01;;;;;;;17.00;6.03;;;;;;;;;;5099479;27;20059;-71
2022/03/15 13:27:40;;;;;;;8.32;3.92;;;;;;;;;;5104095;27;20062;-71
2022/03/15 13:30:13;;;;;;;4.00;2.15;;;;;;;;;;5106009;28;20559;-71
2022/03/15 13:32:38;;;;;;;13.57;2.15;;;;;;;;;;5103662;28;20529;-71
2022/03/15 13:35:04;;;;;;;3.28;2.10;;;;;;;;;;5104031;27;20547;-71
2022/03/15 13:37:29;;;;;;;3.42;1.92;;;;;;;;;;5101523;27;20039;-71
2022/03/15 13:39:55;;;;;;;3.60;2.33;;;;;;;;;;5105789;27;20085;-71
2022/03/15 13:42:20;;;;;;;2.78;1.80;;;;;;;;;;5096391;28;20107;-71
2022/03/15 13:44:52;;;;;;;2.80;1.80;;;;;;;;;;5091677;28;20428;-71
2022/03/15 13:47:21;;;;;;;6.57;2.30;;;;;;;;;;5080070;27;20044;-71
2022/03/15 13:49:48;;;;;;;5.10;2.30;;;;;;;;;;5097994;27;20047;-70
2022/03/15 13:52:20;;;;;;;7.95;2.22;;;;;;;;;;5105839;27;20024;-71
2022/03/15 13:54:50;;;;;;;4.40;2.10;;;;;;;;;;5099817;28;20035;-71
2022/03/15 13:57:31;;;;;;;3.88;2.30;;;;;;;;;;5104621;28;20019;-71
2022/03/15 14:00:05;;;;;;;3.03;2.05;;;;;;;;;;5102394;28;20048;-71
2022/03/15 14:02:36;;;;;;;2.67;1.88;;;;;;;;;;5104186;27;20073;-71
2022/03/15 14:05:07;;;;;;;2.65;1.90;;;;;;;;;;5103946;27;20028;-71
2022/03/15 14:07:35;;;;;;;2.85;1.92;;;;;;;;;;5092946;28;20063;-71
2022/03/15 14:10:04;;;;;;;7.57;2.00;;;;;;;;;;5105207;27;20043;-71
2022/03/15 14:12:32;;;;;;;3.00;1.85;;;;;;;;;;5106792;27;20023;-71
2022/03/15 14:15:02;;;;;;;2.78;2.13;;;;;;;;;;5107039;28;20036;-71
2022/03/15 14:17:34;;;;;;;3.03;1.88;;;;;;;;;;5100298;28;20071;-71
2022/03/15 14:19:59;;;;;;;3.25;1.80;;;;;;;;;;5107476;27;20042;-73
2022/03/15 14:22:28;;;;;;;3.03;1.77;;;;;;;;;;5108888;27;20043;-73
2022/03/15 14:24:57;;;;;;;2.63;1.90;;;;;;;;;;5106296;28;20031;-73
2022/03/15 14:27:26;;;;;;;5.53;1.75;;;;;;;;;;5106317;27;20077;-73
2022/03/15 14:29:59;;;;;;;2.40;1.90;;;;;;;;;;5105948;28;20411;-73
2022/03/15 14:32:26;;;;;;;5.65;1.83;;;;;;;;;;5103178;28;20524;-73
2022/03/15 14:35:06;;;;;;;7.28;1.75;;;;;;;;;;5098082;28;20668;-73
2022/03/15 14:37:34;;;;;;;2.80;1.70;;;;;;;;;;5105135;28;20040;-73
2022/03/15 14:40:04;;;;;;;2.50;1.55;;;;;;;;;;5107097;27;20080;-73